Last 30 Days

South Shandon (SLO-7)

Daily Data | America/Los_Angeles
as of 4/14/21 1:24 AM PDT
Date Daily Max Temp (°F) Time of Max Temp Daily Min Temp (°F) Time of Min Temp Daily Rain (In) Monthly Rain (In) Seasonal Rainfall (In) Wind Spd (mph) Daily Max Wind (mph) Time of Max Wind Daily ETo (in) 7 Day ETo (in) Daily Solar Rad (Cal/cm2) Dew Pt (°F) Max RH (%) Min RH (%) Hrs 70-85F (hrs) Hrs > 95F (hrs) Powdery Mildew Stress (pts) GDDs (DL) GDDs (Mx/Mn) Seas GDDs (DL) Seas GDDs (Smpl) Max Inversion (°F) Max Inversion Time Min Inversion (°F) Min Inversion Time Max 1 Min Rain (In) Max 1 Min Rain Time Max 15 Min Rain (In) Max 15 Min Precip Time Max 60 Min Rain (In) Max 60 Min Rain Time Hrs <= 32F (hrs) Hrs <= 28F (hrs) Chilling <=45F (hrs) Chilling <=45F Seas (hrs) Bat Volt Min Day (V)
4/13/21 63.9 1512 37.6 0349 0.00 0.00 4.11 5.6 20.2 1424 0.128 1.23 509 41.2 95 43 0.00 0.00 100 2.8 0.8 114 89 4.6 0110 -6.3 1350 - - - - - - 0.0 0.0 12.3 - 12.3
4/12/21 82.0 1539 35.7 0636 0.00 0.00 4.11 4.7 16.8 1710 0.207 1.27 595 40.1 93 15 6.76 0.00 90 10.4 8.8 111 88 6.5 0213 -6.2 1340 - - - - - - 0.0 0.0 7.2 - 12.3
4/11/21 80.8 1619 37.8 0518 0.00 0.00 4.11 3.3 12.8 1705 0.164 1.22 529 41.1 92 25 6.40 0.00 70 9.7 9.3 101 79 6.8 0427 -5.6 1322 - - - - - - 0.0 0.0 7.6 - 12.3
4/10/21 78.4 1739 37.4 0313 0.00 0.00 4.11 3.1 13.8 1419 0.170 1.22 566 38.2 94 18 5.63 0.00 80 8.3 7.9 91 70 10.7 2110 -4.6 1234 - - - - - - 0.0 0.0 8.6 - 12.3
4/9/21 79.4 1710 32.4 0629 0.00 0.00 4.11 4.1 15.8 1755 0.200 1.19 609 37.5 94 20 6.39 0.00 60 9.5 5.9 82 62 6.9 0528 -5.9 1150 - - - - - - 0.0 0.0 9.1 - 12.2
4/8/21 76.9 1659 35.7 0529 0.00 0.00 4.11 3.6 14.2 1738 0.181 1.21 584 38.2 94 22 5.78 0.00 70 8.7 6.3 73 56 8.1 0057 -5.4 1207 - - - - - - 0.0 0.0 9.1 - 12.3
4/7/21 78.6 1511 36.3 0647 0.00 0.00 4.11 3.6 16.8 1542 0.182 1.24 551 38.8 95 17 5.93 0.00 80 9.0 7.5 64 50 7.0 0003 -5.6 1457 - - - - - - 0.0 0.0 7.8 - 12.3
4/6/21 79.8 1625 38.2 0101 0.00 0.00 4.11 2.7 14.2 2047 0.162 1.28 556 42.8 95 26 5.87 0.00 90 9.1 9.0 55 43 6.8 2221 -5.9 1138 - - - - - - 0.0 0.0 9.0 - 12.3
4/5/21 74.3 1648 36.2 0415 0.00 0.00 4.11 4.4 18.2 1801 0.160 1.31 501 40.4 95 24 3.50 0.00 100 6.5 5.2 46 34 5.0 0105 -6.0 1413 - - - - - - 0.0 0.0 10.3 - 12.3
4/4/21 80.6 1630 31.5 0540 0.00 0.00 4.11 2.6 11.5 2055 0.166 1.34 541 39.9 95 18 6.24 0.00 90 9.5 6.0 40 28 6.7 0036 -4.1 1345 - - - - - - 0.2 0.0 9.5 - 12.2
4/3/21 72.1 1515 33.7 0401 0.00 0.00 4.11 3.9 14.8 1522 0.140 1.36 509 40.1 95 38 1.26 0.00 100 4.9 2.9 30 22 8.4 0215 -5.6 1238 - - - - - - 0.0 0.0 12.4 - 12.2
4/2/21 83.1 1418 34.2 0702 0.00 0.00 4.11 4.1 16.8 1504 0.217 1.39 594 31.0 90 13 7.99 0.00 100 11.6 8.7 25 19 9.9 2103 -4.6 1400 - - - - - - 0.0 0.0 8.7 - 12.2
4/1/21 87.1 1601 34.4 0644 0.00 0.00 4.11 3.5 16.2 1708 0.210 1.32 573 27.6 76 9 8.52 0.00 100 13.7 10.7 14 11 14.0 2315 -3.6 1324 - - - - - - 0.0 0.0 6.6 - 12.2
3/31/21 83.8 1441 37.2 0651 0.00 0.76 4.11 4.3 21.5 1258 0.228 1.21 585 27.4 77 7 9.92 0.00 80 14.0 10.5 - - 12.7 2318 -3.9 1317 - - - - - - 0.0 0.0 6.1 1,641 12.2
3/30/21 76.3 1617 32.9 0650 0.00 0.76 4.11 3.7 15.5 1318 0.186 1.15 575 32.0 93 18 6.07 0.00 60 10.6 4.6 - - 10.4 2336 -3.8 1414 - - - - - - 0.0 0.0 7.0 1,635 12.2
3/29/21 79.1 1527 34.1 0546 0.00 0.76 4.11 4.3 16.8 1622 0.197 1.10 568 36.2 87 9 7.34 0.00 0 9.9 6.6 - - 8.6 0246 -5.0 1250 - - - - - - 0.0 0.0 9.0 1,628 12.2
3/28/21 83.2 1625 34.2 0649 0.00 0.76 4.11 2.9 13.5 1900 0.186 1.03 565 36.6 91 15 8.58 0.00 0 12.2 8.7 - - 9.2 2044 -3.6 1428 - - - - - - 0.0 0.0 7.5 1,619 12.2
3/27/21 76.7 1621 30.9 0607 0.00 0.76 4.11 2.8 11.1 1518 0.168 0.97 559 35.9 91 22 6.46 0.00 0 9.2 3.8 - - 11.1 2014 -3.2 1323 - - - - - - 0.7 0.0 8.3 1,611 12.2
3/26/21 67.5 1732 32.1 0210 0.00 0.76 4.11 2.9 14.8 1612 0.141 0.92 523 36.9 95 23 0.00 0.00 0 4.7 0.0 - - 11.6 2244 -4.0 1248 - - - - - - 0.0 0.0 11.3 1,603 12.3
3/25/21 61.1 1554 39.0 0228 0.00 0.76 4.11 5.7 17.8 1512 0.104 0.85 417 40.0 94 41 0.00 0.00 0 2.1 0.0 - - 4.6 0101 -5.4 1254 - - - - - - 0.0 0.0 12.2 1,591 12.3
3/24/21 69.8 1547 29.6 0519 0.00 0.76 4.11 3.8 17.2 1629 0.165 0.87 534 26.7 80 16 0.00 0.00 0 6.0 0.0 - - 11.0 0210 -3.0 1438 - - - - - - 1.7 0.0 9.6 1,579 12.2
3/23/21 64.8 1548 39.3 0736 0.00 0.76 4.11 6.0 18.8 1828 0.138 0.82 481 36.2 93 24 0.00 0.00 0 4.0 2.0 - - 6.8 0017 -3.7 1137 - - - - - - 0.0 0.0 7.5 1,570 12.3
3/22/21 65.2 1646 27.4 0701 0.00 0.76 4.11 4.7 19.5 1841 0.128 0.79 491 37.8 96 34 0.00 0.00 0 3.4 0.0 - - 7.2 0225 -3.8 1255 - - - - - - 4.0 0.4 10.8 1,562 12.2
3/21/21 62.9 1652 28.9 0456 0.00 0.76 4.11 3.4 16.2 1740 0.124 0.75 481 34.2 96 28 0.00 0.00 0 2.9 0.0 - - 11.0 2111 -3.4 1021 - - - - - - 1.7 0.0 13.6 1,551 12.3
3/20/21 60.6 1523 33.1 0608 0.00 0.76 4.11 3.6 17.8 1522 0.124 0.68 491 36.8 95 32 0.00 0.00 0 2.3 0.0 - - 6.5 0546 -3.3 1319 - - - - - - 0.0 0.0 11.0 1,538 12.2
3/19/21 68.7 1327 47.6 0509 0.07 0.76 4.11 3.8 20.2 1546 0.073 0.66 240 49.8 93 55 0.00 0.00 0 4.8 8.2 - - 3.4 0508 -2.3 0949 0.01 1934 0.02 1921 0.04 1912 0.0 0.0 0.0 1,527 12.4
3/18/21 68.2 1612 35.6 0729 0.00 0.69 4.04 3.6 17.8 1718 0.122 0.68 430 43.4 94 38 0.00 0.00 0 4.8 1.9 - - 5.6 0604 -3.5 1457 - - - - - - 0.0 0.0 6.8 1,527 12.3
3/17/21 62.8 1541 29.0 0524 0.00 0.69 4.04 2.8 16.2 1649 0.115 0.64 482 38.4 96 50 0.00 0.00 0 2.3 0.0 - - 5.6 0239 -3.4 1500 - - - - - - 4.7 0.0 11.9 1,520 12.2
3/16/21 60.0 1804 24.4 0727 0.00 0.69 4.04 2.5 11.5 1511 0.107 0.58 488 34.0 96 41 0.00 0.00 0 1.7 0.0 - - 7.4 2302 -3.4 1212 - - - - - - 7.0 2.9 14.3 1,508 12.2
3/15/21 51.9 1518 30.3 0032 0.04 0.69 4.04 9.1 25.6 1330 0.084 0.57 393 36.0 94 41 0.00 0.00 0 0.0 0.0 - - 6.2 0031 -4.9 1642 0.01 1649 0.01 1703 0.02 0502 0.5 0.0 16.0 1,494 12.3
Max 87.1 - 47.6 - 0.07 0.76 - 9.1 25.6 - 0.228 - 609 49.8 96 55 9.92 0.00 - 14.0 10.7 - - 14.0 - -2.3 - 0.01 - 0.02 - 0.04 - 7.0 2.9 16.0 - 12.4
Avg - - - - - 0.42 - 4.0 - - - - - 37.2 - - 3.62 0.00 - 7.0 4.5 - - - - - - - - - - - - 0.7 0.1 9.4 - -
Min 51.9 - 24.4 - 0.00 0.00 - 2.5 11.1 - 0.073 - 240 26.7 76 7 0.00 0.00 - 0.0 0.0 - - 3.4 - -6.3 - 0.01 - 0.01 - 0.02 - 0.0 0.0 0.0 - 12.2
Total - - - - - - - - - - - - - - - - 108.63 0.00 - 208.7 135.3 - - - - - - - - - - - - 20.5 3.2 281.2 - -